createdAt,value
2023-03-25T00:01:14.998Z,6.20
2023-03-25T00:03:42.990Z,9.45
2023-03-25T00:06:11.250Z,9.27
2023-03-25T00:08:38.530Z,5.57
2023-03-25T00:11:06.493Z,5.72
2023-03-25T00:13:33.614Z,5.85
2023-03-25T00:16:01.346Z,5.13
2023-03-25T00:18:30.737Z,7.00
2023-03-25T00:20:57.629Z,8.30
2023-03-25T00:23:24.699Z,6.53
2023-03-25T00:25:51.779Z,5.60
2023-03-25T00:28:18.954Z,6.07
2023-03-25T00:30:46.465Z,6.93
2023-03-25T00:33:13.655Z,6.07
2023-03-25T00:35:41.280Z,6.60
2023-03-25T00:38:08.408Z,6.30
2023-03-25T00:40:35.824Z,7.55
2023-03-25T00:43:04.207Z,5.32
2023-03-25T00:45:31.421Z,6.53
2023-03-25T00:47:58.568Z,6.40
2023-03-25T00:50:25.839Z,5.90
2023-03-25T00:52:53.194Z,6.47
2023-03-25T00:55:20.478Z,5.83
2023-03-25T00:57:47.460Z,7.45
2023-03-25T01:00:17.209Z,6.10
2023-03-25T01:02:44.734Z,5.32
2023-03-25T01:05:12.419Z,6.35
2023-03-25T01:07:40.358Z,6.22
2023-03-25T01:10:08.402Z,5.00
2023-03-25T01:12:35.273Z,7.00
2023-03-25T01:15:02.212Z,7.57
2023-03-25T01:17:29.113Z,6.82
2023-03-25T01:19:56.024Z,6.35
2023-03-25T01:22:22.843Z,7.72
2023-03-25T01:24:49.686Z,6.95
2023-03-25T01:27:16.583Z,6.97
2023-03-25T01:29:43.432Z,5.93
2023-03-25T01:32:10.288Z,7.10
2023-03-25T01:34:37.128Z,6.07
2023-03-25T01:37:04.401Z,6.55
2023-03-25T01:39:31.280Z,6.25
2023-03-25T01:41:58.133Z,5.60
2023-03-25T01:44:24.944Z,9.13
2023-03-25T01:46:54.013Z,8.38
2023-03-25T01:49:26.810Z,6.93
2023-03-25T01:52:03.577Z,6.87
2023-03-25T01:54:31.079Z,8.30
2023-03-25T01:56:58.280Z,6.75
2023-03-25T01:59:28.562Z,7.07
2023-03-25T02:01:57.290Z,8.10
2023-03-25T02:04:47.371Z,7.20
2023-03-25T02:07:14.563Z,7.60
2023-03-25T02:09:41.557Z,5.28
2023-03-25T02:12:08.430Z,6.87
2023-03-25T02:14:37.322Z,6.25
2023-03-25T02:17:33.812Z,8.10
2023-03-25T02:20:22.098Z,5.50
2023-03-25T02:23:16.267Z,9.50
2023-03-25T02:26:12.143Z,6.65
2023-03-25T02:28:59.594Z,6.47
2023-03-25T02:32:09.768Z,5.80
2023-03-25T02:34:42.394Z,7.60
2023-03-25T02:37:23.417Z,7.50
2023-03-25T02:39:54.878Z,7.65
2023-03-25T02:42:28.402Z,7.68
2023-03-25T02:45:05.866Z,8.20
2023-03-25T02:47:36.805Z,6.95
2023-03-25T02:50:10.480Z,7.50
2023-03-25T02:52:46.317Z,6.40
2023-03-25T02:55:15.806Z,6.30
2023-03-25T02:57:46.364Z,7.10
2023-03-25T03:00:16.213Z,7.45
2023-03-25T03:02:53.569Z,7.82
2023-03-25T03:05:32.784Z,6.40
2023-03-25T03:08:21.037Z,6.57
2023-03-25T03:10:47.859Z,7.70
2023-03-25T03:13:40.818Z,6.10
2023-03-25T03:16:16.721Z,7.95
2023-03-25T03:19:17.754Z,7.72
2023-03-25T03:21:53.408Z,7.35
2023-03-25T03:24:32.124Z,6.40
2023-03-25T03:27:14.937Z,7.00
2023-03-25T03:30:01.916Z,8.07
2023-03-25T03:32:32.805Z,7.63
2023-03-25T03:35:06.439Z,7.53
2023-03-25T03:37:47.747Z,7.45
2023-03-25T03:40:18.702Z,7.28
2023-03-25T03:42:54.977Z,8.10
2023-03-25T03:45:49.827Z,6.68
2023-03-25T03:48:31.162Z,6.20
2023-03-25T03:51:05.945Z,7.07
2023-03-25T03:53:40.349Z,7.05
2023-03-25T03:56:14.294Z,8.40
2023-03-25T03:58:43.281Z,7.03
2023-03-25T04:01:35.074Z,8.50
2023-03-25T04:04:08.999Z,6.60
2023-03-25T04:06:43.362Z,7.28
2023-03-25T04:09:25.632Z,6.80
2023-03-25T04:11:59.411Z,8.00
2023-03-25T04:14:26.487Z,8.02
2023-03-25T04:16:54.649Z,8.10
2023-03-25T04:19:21.513Z,9.50
2023-03-25T04:21:48.518Z,7.53
2023-03-25T04:24:16.100Z,8.77
2023-03-25T04:26:43.640Z,7.38
2023-03-25T04:29:10.617Z,8.68
2023-03-25T04:31:37.566Z,6.78
2023-03-25T04:34:04.645Z,7.57
2023-03-25T04:36:31.804Z,7.75
2023-03-25T04:38:58.628Z,8.37
2023-03-25T04:41:25.688Z,8.07
2023-03-25T04:43:52.552Z,8.65
2023-03-25T04:46:19.897Z,8.10
2023-03-25T04:48:46.986Z,10.23
2023-03-25T04:51:15.185Z,9.85
2023-03-25T04:53:42.728Z,8.00
2023-03-25T04:56:13.648Z,8.85
2023-03-25T04:58:40.476Z,8.23
2023-03-25T05:01:07.772Z,8.02
2023-03-25T05:03:34.654Z,6.80
2023-03-25T05:06:01.496Z,9.35
2023-03-25T05:08:28.368Z,6.55
2023-03-25T05:10:55.710Z,8.10
2023-03-25T05:13:22.597Z,8.40
2023-03-25T05:15:49.609Z,8.13
2023-03-25T05:18:17.236Z,6.85
2023-03-25T05:20:46.430Z,7.50
2023-03-25T05:23:14.410Z,9.93
2023-03-25T05:25:42.611Z,7.15
2023-03-25T05:28:10.193Z,7.15
2023-03-25T05:30:38.766Z,6.72
2023-03-25T05:33:09.989Z,8.55
2023-03-25T05:35:39.947Z,5.82
2023-03-25T05:38:07.224Z,7.75
2023-03-25T05:40:34.762Z,7.13
2023-03-25T05:43:02.141Z,7.18
2023-03-25T05:45:29.351Z,8.18
2023-03-25T05:47:56.457Z,9.07
2023-03-25T05:50:23.458Z,7.95
2023-03-25T05:52:50.350Z,6.97
2023-03-25T05:55:20.636Z,6.10
2023-03-25T05:57:48.016Z,9.63
2023-03-25T06:00:17.319Z,7.72
2023-03-25T06:02:44.290Z,7.72
2023-03-25T06:05:13.254Z,6.10
2023-03-25T06:07:45.083Z,8.00
2023-03-25T06:10:16.372Z,7.65
2023-03-25T06:12:44.412Z,6.78
2023-03-25T06:15:12.775Z,8.68
2023-03-25T06:17:40.455Z,8.98
2023-03-25T06:20:12.277Z,10.00
2023-03-25T06:22:40.982Z,7.95
2023-03-25T06:25:08.195Z,6.90
2023-03-25T06:27:35.148Z,8.40
2023-03-25T06:30:02.678Z,7.97
2023-03-25T06:32:29.652Z,7.35
2023-03-25T06:34:56.515Z,7.45
2023-03-25T06:37:23.357Z,6.90
2023-03-25T06:39:50.227Z,7.15
2023-03-25T06:42:17.092Z,8.05
2023-03-25T06:44:43.934Z,7.65
2023-03-25T06:47:10.787Z,7.63
2023-03-25T06:49:37.700Z,7.35
2023-03-25T06:52:08.144Z,7.67
2023-03-25T06:54:35.048Z,7.55
2023-03-25T06:57:01.948Z,5.72
2023-03-25T06:59:28.845Z,8.83
2023-03-25T07:01:55.723Z,7.07
2023-03-25T07:04:22.791Z,6.32
2023-03-25T07:06:49.749Z,7.37
2023-03-25T07:09:16.597Z,6.53
2023-03-25T07:11:43.694Z,7.43
2023-03-25T07:14:10.569Z,6.38
2023-03-25T07:16:37.443Z,8.80
2023-03-25T07:19:04.380Z,9.07
2023-03-25T07:21:31.194Z,7.35
2023-03-25T07:23:58.103Z,7.38
2023-03-25T07:26:24.954Z,9.15
2023-03-25T07:28:51.813Z,5.55
2023-03-25T07:31:18.651Z,10.77
2023-03-25T07:33:45.576Z,7.32
2023-03-25T07:36:13.833Z,7.90
2023-03-25T07:38:41.049Z,7.25
2023-03-25T07:41:11.015Z,7.00
2023-03-25T07:43:38.403Z,7.63
2023-03-25T07:46:05.728Z,8.33
2023-03-25T07:48:32.920Z,8.85
2023-03-25T07:50:59.871Z,9.65
2023-03-25T07:53:26.692Z,8.80
2023-03-25T07:55:53.667Z,9.00
2023-03-25T07:58:20.594Z,8.48
2023-03-25T08:00:47.650Z,7.97
2023-03-25T08:03:15.729Z,7.22
2023-03-25T08:05:49.322Z,7.78
2023-03-25T08:08:16.381Z,8.10
2023-03-25T08:10:44.336Z,8.40
2023-03-25T08:13:11.567Z,7.38
2023-03-25T08:15:38.815Z,9.07
2023-03-25T08:18:06.201Z,6.07
2023-03-25T08:20:36.450Z,7.32
2023-03-25T08:23:03.616Z,9.07
2023-03-25T08:25:31.380Z,9.45
2023-03-25T08:27:58.539Z,8.93
2023-03-25T08:30:25.491Z,7.10
2023-03-25T08:32:52.544Z,8.55
2023-03-25T08:35:20.462Z,10.00
2023-03-25T08:37:48.101Z,9.57
2023-03-25T08:40:15.345Z,7.90
2023-03-25T08:42:42.217Z,7.40
2023-03-25T08:45:09.895Z,6.55
2023-03-25T08:47:36.832Z,7.68
2023-03-25T08:50:04.233Z,8.25
2023-03-25T08:52:31.541Z,7.93
2023-03-25T08:54:58.394Z,7.40
2023-03-25T08:57:25.301Z,5.93
2023-03-25T08:59:52.306Z,7.23
2023-03-25T09:02:19.203Z,8.15
2023-03-25T09:04:48.599Z,8.52
2023-03-25T09:07:15.499Z,6.88
2023-03-25T09:09:42.479Z,5.13
2023-03-25T09:12:09.433Z,4.97
2023-03-25T09:14:36.698Z,4.55
2023-03-25T09:17:03.982Z,7.13
2023-03-25T09:19:30.823Z,7.45
2023-03-25T09:21:57.663Z,6.40
2023-03-25T09:24:24.644Z,5.00
2023-03-25T09:26:51.482Z,5.32
2023-03-25T09:29:18.342Z,6.15
2023-03-25T09:31:45.188Z,6.70
2023-03-25T09:34:12.062Z,5.40
2023-03-25T09:36:39.421Z,6.20
2023-03-25T09:39:06.299Z,6.63
2023-03-25T09:42:01.266Z,7.43
2023-03-25T09:44:34.315Z,6.57
2023-03-25T09:47:03.227Z,8.32
2023-03-25T09:49:42.883Z,6.60
2023-03-25T09:52:18.392Z,5.68
2023-03-25T09:54:51.920Z,6.93
2023-03-25T09:57:25.884Z,10.75
2023-03-25T09:59:53.396Z,6.72
2023-03-25T10:02:23.436Z,6.72
2023-03-25T10:05:14.897Z,6.40
2023-03-25T10:07:56.364Z,7.63
2023-03-25T10:10:52.169Z,6.20
2023-03-25T10:13:38.495Z,9.95
2023-03-25T10:16:22.275Z,9.30
2023-03-25T10:19:17.351Z,6.65
2023-03-25T10:22:08.691Z,10.13
2023-03-25T10:24:54.056Z,6.55
2023-03-25T10:27:38.206Z,6.85
2023-03-25T10:30:14.197Z,6.13
2023-03-25T10:32:45.557Z,6.43
2023-03-25T10:35:26.277Z,7.35
2023-03-25T10:37:55.534Z,7.85
2023-03-25T10:40:31.427Z,7.40
2023-03-25T10:43:14.030Z,8.75
2023-03-25T10:45:42.673Z,6.47
2023-03-25T10:48:16.389Z,6.07
2023-03-25T10:50:44.118Z,8.18
2023-03-25T10:53:23.920Z,7.10
2023-03-25T10:56:06.137Z,5.28
2023-03-25T10:58:35.764Z,7.38
2023-03-25T11:01:13.735Z,4.60
2023-03-25T11:03:42.830Z,3.20
2023-03-25T11:06:24.309Z,7.55
2023-03-25T11:09:27.029Z,5.05
2023-03-25T11:11:54.335Z,4.10
2023-03-25T11:14:26.485Z,5.30
2023-03-25T11:17:04.830Z,3.05
2023-03-25T11:19:55.248Z,4.05
2023-03-25T11:22:36.285Z,6.72
2023-03-25T11:25:25.589Z,5.80
2023-03-25T11:27:58.191Z,3.90
2023-03-25T11:30:26.137Z,4.68
2023-03-25T11:33:02.573Z,4.05
2023-03-25T11:35:32.191Z,7.50
2023-03-25T11:38:01.362Z,7.73
2023-03-25T11:40:30.649Z,7.73
2023-03-25T11:43:00.562Z,4.93
2023-03-25T11:45:35.991Z,6.05
2023-03-25T11:48:18.135Z,6.60
2023-03-25T11:50:48.356Z,6.75
2023-03-25T11:53:17.100Z,6.43
2023-03-25T11:55:59.093Z,8.30
2023-03-25T11:58:32.739Z,6.47
2023-03-25T12:01:05.465Z,5.95
2023-03-25T12:03:34.436Z,6.78
2023-03-25T12:06:07.059Z,7.50
2023-03-25T12:08:42.757Z,6.00
2023-03-25T12:11:43.341Z,7.32
2023-03-25T12:14:29.649Z,6.70
2023-03-25T12:17:05.424Z,12.07
2023-03-25T12:19:44.291Z,8.18
2023-03-25T12:22:23.267Z,8.18
2023-03-25T12:25:02.061Z,7.72
2023-03-25T12:27:31.915Z,8.13
2023-03-25T12:30:21.432Z,9.48
2023-03-25T12:33:05.556Z,7.00
2023-03-25T12:35:47.893Z,8.97
2023-03-25T12:38:38.874Z,7.77
2023-03-25T12:41:26.737Z,10.52
2023-03-25T12:44:32.023Z,7.63
2023-03-25T12:47:42.231Z,10.25
2023-03-25T12:50:27.653Z,11.00
2023-03-25T12:53:19.167Z,9.20
2023-03-25T12:56:34.114Z,7.40
2023-03-25T12:59:19.749Z,7.15
2023-03-25T13:01:58.813Z,7.57
2023-03-25T13:05:00.783Z,9.20
2023-03-25T13:07:37.900Z,6.60
2023-03-25T13:10:25.024Z,7.80
2023-03-25T13:12:57.103Z,7.38
2023-03-25T13:15:36.629Z,6.60
2023-03-25T13:18:18.844Z,5.88
2023-03-25T13:21:00.532Z,5.38
2023-03-25T13:23:29.101Z,9.60
2023-03-25T13:26:03.155Z,4.50
2023-03-25T13:28:42.148Z,4.55
2023-03-25T13:31:14.416Z,4.00
2023-03-25T13:33:50.770Z,4.63
2023-03-25T13:36:32.084Z,4.82
2023-03-25T13:39:20.940Z,5.13
2023-03-25T13:41:56.985Z,6.72
2023-03-25T13:44:36.665Z,3.63
2023-03-25T13:47:29.616Z,3.28
2023-03-25T13:50:07.374Z,3.72
2023-03-25T13:52:42.665Z,4.20
2023-03-25T13:55:23.368Z,5.60
2023-03-25T13:58:10.483Z,3.50
2023-03-25T14:00:56.820Z,3.83
2023-03-25T14:03:54.230Z,4.30
2023-03-25T14:06:58.183Z,5.60
2023-03-25T14:09:48.026Z,3.70
2023-03-25T14:12:41.940Z,4.10
2023-03-25T14:15:20.324Z,7.37
2023-03-25T14:17:47.967Z,4.40
2023-03-25T14:20:26.095Z,4.28
2023-03-25T14:23:03.673Z,4.55
2023-03-25T14:25:42.308Z,4.80
2023-03-25T14:28:16.743Z,4.80
2023-03-25T14:30:44.076Z,5.32
2023-03-25T14:33:12.034Z,7.03
2023-03-25T14:35:49.384Z,6.60
2023-03-25T14:38:16.600Z,5.17
2023-03-25T14:41:02.095Z,6.97
2023-03-25T14:43:44.054Z,6.05
2023-03-25T14:46:11.335Z,9.70
2023-03-25T14:48:42.531Z,5.70
2023-03-25T14:51:27.896Z,5.05
2023-03-25T14:54:19.317Z,5.10
2023-03-25T14:56:54.733Z,4.85
2023-03-25T14:59:27.881Z,4.75
2023-03-25T15:02:00.703Z,5.15
2023-03-25T15:04:39.220Z,6.13
2023-03-25T15:07:12.473Z,4.33
2023-03-25T15:10:06.562Z,5.60
2023-03-25T15:12:38.597Z,4.50
2023-03-25T15:15:30.422Z,5.25
2023-03-25T15:18:00.133Z,6.38
2023-03-25T15:20:29.927Z,10.65
2023-03-25T15:23:18.622Z,4.40
2023-03-25T15:25:46.974Z,4.65
2023-03-25T15:28:23.056Z,5.70
2023-03-25T15:31:04.982Z,5.78
2023-03-25T15:33:56.759Z,7.70
2023-03-25T15:37:00.156Z,6.70
2023-03-25T15:39:42.057Z,4.78
2023-03-25T15:42:22.364Z,4.85
2023-03-25T15:45:12.502Z,5.10
2023-03-25T15:47:48.232Z,6.53
2023-03-25T15:50:50.250Z,5.70
2023-03-25T15:53:41.495Z,4.38
2023-03-25T15:56:14.490Z,5.90
2023-03-25T15:58:54.892Z,6.80
2023-03-25T16:01:29.967Z,5.43
2023-03-25T16:04:31.804Z,6.63
2023-03-25T16:07:01.011Z,7.65
2023-03-25T16:09:29.075Z,7.65
2023-03-25T16:12:00.640Z,8.93
2023-03-25T16:14:31.344Z,8.00
2023-03-25T16:17:01.052Z,6.65
2023-03-25T16:19:42.857Z,4.85
2023-03-25T16:22:17.696Z,4.40
2023-03-25T16:24:46.680Z,5.37
2023-03-25T16:27:21.895Z,5.35
2023-03-25T16:29:54.144Z,6.57
2023-03-25T16:32:23.862Z,5.18
2023-03-25T16:34:50.703Z,5.90
2023-03-25T16:37:18.015Z,5.00
2023-03-25T16:39:50.324Z,7.20
2023-03-25T16:42:19.905Z,4.10
2023-03-25T16:44:47.197Z,4.78
2023-03-25T16:47:16.080Z,7.00
2023-03-25T16:49:47.839Z,4.18
2023-03-25T16:52:24.121Z,4.10
2023-03-25T16:54:50.950Z,3.22
2023-03-25T16:57:23.351Z,4.15
2023-03-25T16:59:52.977Z,3.08
2023-03-25T17:02:32.043Z,5.20
2023-03-25T17:05:23.202Z,4.85
2023-03-25T17:08:05.599Z,4.45
2023-03-25T17:10:52.042Z,4.22
2023-03-25T17:13:36.482Z,3.33
2023-03-25T17:16:07.250Z,2.88
2023-03-25T17:18:36.784Z,5.35
2023-03-25T17:21:09.321Z,2.80
2023-03-25T17:23:40.919Z,3.13
2023-03-25T17:26:11.598Z,4.25
2023-03-25T17:28:56.108Z,3.00
2023-03-25T17:31:34.913Z,3.35
2023-03-25T17:34:11.059Z,5.00
2023-03-25T17:36:40.577Z,3.40
2023-03-25T17:39:26.442Z,3.75
2023-03-25T17:42:05.371Z,5.50
2023-03-25T17:44:35.324Z,6.50
2023-03-25T17:47:02.226Z,3.90
2023-03-25T17:49:32.741Z,5.07
2023-03-25T17:51:59.752Z,3.63
2023-03-25T17:54:26.876Z,4.60
2023-03-25T17:56:53.948Z,5.30
2023-03-25T17:59:23.887Z,4.50
2023-03-25T18:01:51.073Z,6.53
2023-03-25T18:04:19.632Z,4.83
2023-03-25T18:06:46.817Z,5.65
2023-03-25T18:09:22.443Z,4.22
2023-03-25T18:11:52.486Z,5.57
2023-03-25T18:14:23.424Z,18.02
2023-03-25T18:16:51.662Z,16.92
2023-03-25T18:19:21.506Z,7.53
2023-03-25T18:21:48.553Z,5.35
2023-03-25T18:24:15.673Z,6.18
2023-03-25T18:26:44.251Z,5.27
2023-03-25T18:29:17.832Z,4.75
2023-03-25T18:31:44.703Z,6.15
2023-03-25T18:34:12.404Z,6.55
2023-03-25T18:36:39.972Z,6.97
2023-03-25T18:39:06.927Z,5.82
2023-03-25T18:41:34.154Z,5.90
2023-03-25T18:44:01.014Z,5.63
2023-03-25T18:46:27.900Z,6.17
2023-03-25T18:48:54.745Z,6.18
2023-03-25T18:51:21.609Z,7.65
2023-03-25T18:53:48.554Z,3.53
2023-03-25T18:56:15.390Z,3.92
2023-03-25T18:58:42.266Z,4.70
2023-03-25T19:01:13.629Z,6.10
2023-03-25T19:03:40.657Z,3.17
2023-03-25T19:06:12.934Z,3.10
2023-03-25T19:08:41.109Z,5.40
2023-03-25T19:11:19.172Z,4.20
2023-03-25T19:13:48.302Z,5.47
2023-03-25T19:16:15.203Z,4.23
2023-03-25T19:18:42.304Z,4.50
2023-03-25T19:21:10.362Z,4.80
2023-03-25T19:23:37.230Z,3.58
2023-03-25T19:26:04.420Z,3.65
2023-03-25T19:28:31.346Z,6.75
2023-03-25T19:31:01.177Z,4.00
2023-03-25T19:33:28.668Z,3.88
2023-03-25T19:35:55.583Z,3.10
2023-03-25T19:38:22.614Z,3.47
2023-03-25T19:40:51.007Z,5.13
2023-03-25T19:43:18.547Z,4.82
2023-03-25T19:45:45.664Z,4.75
2023-03-25T19:48:12.744Z,7.17
2023-03-25T19:50:39.601Z,4.77
2023-03-25T19:53:06.610Z,4.88
2023-03-25T19:55:33.768Z,4.53
2023-03-25T19:58:00.638Z,6.10
2023-03-25T20:00:28.217Z,6.80
2023-03-25T20:02:58.939Z,5.80
2023-03-25T20:05:25.985Z,6.50
2023-03-25T20:07:52.878Z,6.70
2023-03-25T20:10:21.900Z,8.52
2023-03-25T20:12:50.150Z,5.03
2023-03-25T20:15:18.634Z,3.92
2023-03-25T20:17:47.800Z,5.93
2023-03-25T20:20:14.870Z,5.57
2023-03-25T20:22:42.123Z,5.75
2023-03-25T20:25:10.562Z,6.65
2023-03-25T20:27:38.259Z,5.57
2023-03-25T20:30:07.021Z,6.00
2023-03-25T20:32:41.390Z,4.70
2023-03-25T20:35:12.088Z,5.60
2023-03-25T20:37:39.067Z,4.93
2023-03-25T20:40:08.234Z,4.40
2023-03-25T20:42:35.084Z,5.40
2023-03-25T20:45:01.988Z,6.38
2023-03-25T20:47:28.899Z,6.10
2023-03-25T20:49:55.799Z,6.57
2023-03-25T20:52:22.717Z,5.35
2023-03-25T20:54:49.593Z,4.25
2023-03-25T20:57:16.525Z,4.80
2023-03-25T20:59:43.370Z,5.03
2023-03-25T21:02:11.040Z,5.05
2023-03-25T21:04:38.123Z,5.90
2023-03-25T21:07:05.344Z,6.60
2023-03-25T21:09:32.216Z,6.60
2023-03-25T21:11:59.065Z,5.63
2023-03-25T21:14:26.292Z,5.90
2023-03-25T21:16:53.158Z,6.53
2023-03-25T21:19:20.626Z,4.80
2023-03-25T21:21:47.437Z,4.30
2023-03-25T21:24:14.356Z,4.43
2023-03-25T21:26:41.191Z,6.00
2023-03-25T21:29:08.091Z,4.90
2023-03-25T21:31:35.019Z,6.75
2023-03-25T21:34:01.955Z,4.82
2023-03-25T21:36:29.601Z,5.13
2023-03-25T21:38:58.802Z,5.03
2023-03-25T21:41:27.221Z,5.32
2023-03-25T21:43:54.102Z,5.05
2023-03-25T21:46:21.886Z,6.43
2023-03-25T21:48:48.739Z,6.30
2023-03-25T21:51:15.605Z,6.65
2023-03-25T21:53:44.497Z,6.93
2023-03-25T21:56:14.492Z,6.30
2023-03-25T21:58:41.563Z,5.35
2023-03-25T22:01:17.820Z,5.80
2023-03-25T22:03:44.846Z,8.98
2023-03-25T22:06:17.321Z,7.47
2023-03-25T22:08:44.847Z,7.10
2023-03-25T22:11:17.402Z,10.77
2023-03-25T22:13:44.789Z,10.27
2023-03-25T22:16:13.755Z,9.70
2023-03-25T22:18:41.313Z,7.88
2023-03-25T22:21:09.389Z,9.82
2023-03-25T22:23:36.927Z,10.05
2023-03-25T22:26:04.846Z,9.10
2023-03-25T22:28:31.773Z,11.20
2023-03-25T22:30:58.655Z,10.80
2023-03-25T22:33:25.667Z,9.37
2023-03-25T22:35:53.066Z,12.20
2023-03-25T22:38:20.090Z,9.77
2023-03-25T22:40:47.075Z,12.67
2023-03-25T22:43:13.901Z,11.10
2023-03-25T22:45:40.748Z,10.90
2023-03-25T22:48:07.634Z,9.65
2023-03-25T22:50:35.042Z,9.50
2023-03-25T22:53:01.938Z,10.40
2023-03-25T22:55:28.803Z,9.60
2023-03-25T22:57:55.642Z,10.77
2023-03-25T23:00:26.424Z,9.15
2023-03-25T23:02:53.326Z,12.05
2023-03-25T23:05:20.356Z,8.45
2023-03-25T23:07:47.228Z,9.88
2023-03-25T23:10:14.102Z,12.27
2023-03-25T23:12:40.933Z,10.45
2023-03-25T23:15:08.261Z,11.15
2023-03-25T23:17:35.158Z,10.00
2023-03-25T23:20:02.069Z,11.00
2023-03-25T23:22:28.914Z,11.57
2023-03-25T23:24:56.999Z,12.20
2023-03-25T23:27:23.872Z,9.68
2023-03-25T23:29:50.723Z,9.90
2023-03-25T23:32:17.620Z,9.88
2023-03-25T23:34:44.473Z,11.23
2023-03-25T23:37:11.361Z,9.35
2023-03-25T23:39:38.180Z,12.02
2023-03-25T23:42:05.126Z,13.55
2023-03-25T23:44:32.024Z,13.98
2023-03-25T23:46:58.913Z,11.30
2023-03-25T23:49:25.885Z,14.23
2023-03-25T23:51:52.727Z,13.60
2023-03-25T23:54:19.859Z,11.32
2023-03-25T23:56:46.783Z,13.60
2023-03-25T23:59:13.724Z,14.87
